Dai25myoujinmaru — JL6201 — position and weather

sailwx.info

Track history (hours):
 
Tides and Currents Weather Stations Pressure Air Temp Water Temp Dewpoint Dewpoint Depression Visibility Wind Speed Wind Dir Waves Ship Positions

Dai25myoujinmaru

Last reported at 2015-Mar-28 09:34 UTC. Time now 2015-Mar-28 18:54 UTC.
Position N 34°57' E 139°27'.

Length 88 m; draft 5.6 m.

Type: Tanker. MMSI: 431500272.

Date/timePositionNaut miles runAvg speedWind from/ knotsBaromVisibWave heightAir tempDewpointWater temp
2015-Mar-28 09:34N 34°57' E 139°27'1110.7
2015-Mar-28 08:33N 35°04' E 139°37'1111.0
2015-Mar-28 07:33N 35°12' E 139°46'1211.9
2015-Mar-28 06:33N 35°23' E 139°42'1212.2
2015-Mar-28 05:34N 35°31' E 139°54'6 6.0
2015-Mar-28 04:33N 35°30' E 140°02'0 0.0
2015-Mar-28 03:33N 35°30' E 140°02'0 0.0
2015-Mar-28 02:33N 35°30' E 140°02'1 0.8
2015-Mar-28 01:33N 35°30' E 140°01'1211.6
2015-Mar-28 00:32N 35°25' E 139°48'1212.0
2015-Mar-27 23:33N 35°14' E 139°47'1212.5
2015-Mar-27 22:33N 35°03' E 139°40'1313.4
2015-Mar-27 21:33N 34°54' E 139°27'7 0.2
2015-Mar-26 07:08N 35°00' E 139°31'711.8
2015-Mar-26 06:33N 35°04' E 139°38'1212.3
2015-Mar-26 05:33N 35°15' E 139°46'1111.0
2015-Mar-26 04:33N 35°26' E 139°45'9 9.4
2015-Mar-26 03:33N 35°29' E 139°55'1 0.5
2015-Mar-26 02:33N 35°29' E 139°56'5 4.7
2015-Mar-26 01:33N 35°30' E 140°02'0 0.0
2015-Mar-26 00:33N 35°30' E 140°02'0 0.0
2015-Mar-25 23:33N 35°30' E 140°02'0 0.2
2015-Mar-25 22:32N 35°30' E 140°02'3 2.9
2015-Mar-25 21:32N 35°31' E 139°59'0 0.0
2015-Mar-25 20:33N 35°32' E 139°59'0 0.0
2015-Mar-25 19:33N 35°31' E 139°59'0 0.0
2015-Mar-25 18:33N 35°32' E 139°59'0 0.0
2015-Mar-25 17:32N 35°32' E 139°59'0 0.0
2015-Mar-25 16:33N 35°31' E 139°59'0 0.0
2015-Mar-25 15:33N 35°31' E 139°59'0 0.0
2015-Mar-25 14:33N 35°32' E 139°59'0 0.0
2015-Mar-25 13:33N 35°32' E 139°59'0 0.0
2015-Mar-25 12:33N 35°31' E 139°59'0 0.0
2015-Mar-25 11:33N 35°32' E 139°59'0 0.0
2015-Mar-25 10:33N 35°32' E 139°59'0 0.0
2015-Mar-25 09:33N 35°32' E 139°59'5 5.5
2015-Mar-25 08:33N 35°29' E 139°53'1312.5
2015-Mar-25 07:33N 35°18' E 139°44'1212.2
2015-Mar-25 06:33N 35°06' E 139°45'1413.3
2015-Mar-25 05:32N 34°57' E 139°32'23110.8
2015-Mar-24 08:05N 34°05' E 134°59'814.9
2015-Mar-24 07:33N 34°12' E 134°59'1815.1
2015-Mar-24 06:23N 34°30' E 135°03'910.7
2015-Mar-24 05:30N 34°37' E 134°55'4 0.7
2015-Mar-23 23:27N 34°39' E 134°50'1112.3
2015-Mar-23 22:32N 34°36' E 135°04'1111.5
2015-Mar-23 21:33N 34°25' E 135°02'1111.3
2015-Mar-23 20:33N 34°14' E 134°59'1111.5
2015-Mar-23 19:33N 34°02' E 134°60'  
2015-Mar-21 11:33N 35°03' E 139°35'1212.6
2015-Mar-21 10:33N 35°12' E 139°46'1312.5
2015-Mar-21 09:33N 35°24' E 139°43'1611.8
2015-Mar-21 08:14N 35°30' E 140°01'0 0.1
2015-Mar-21 02:33N 35°30' E 140°01'8 7.5
2015-Mar-21 01:30N 35°28' E 139°52'1111.9
2015-Mar-21 00:33N 35°19' E 139°44'1211.4
2015-Mar-20 23:33N 35°08' E 139°46'1312.5
2015-Mar-20 22:32N 34°59' E 139°34'  
Track history (hours):
 
Tides and Currents Weather Stations Pressure Air Temp Water Temp Dewpoint Dewpoint Depression Visibility Wind Speed Wind Dir Waves Ship Positions

Dai25myoujinmaru

Last reported at 2015-Mar-28 09:34 UTC. Time now 2015-Mar-28 18:54 UTC.
Position N 34°57' E 139°27'.

Length 88 m; draft 5.6 m.

Type: Tanker. MMSI: 431500272.

Date/timePositionNaut miles runAvg speedWind from/ knotsBaromVisibWave heightAir tempDewpointWater temp
2015-Mar-28 09:34N 34°57' E 139°27'1110.7
2015-Mar-28 08:33N 35°04' E 139°37'1111.0
2015-Mar-28 07:33N 35°12' E 139°46'1211.9
2015-Mar-28 06:33N 35°23' E 139°42'1212.2
2015-Mar-28 05:34N 35°31' E 139°54'6 6.0
2015-Mar-28 04:33N 35°30' E 140°02'0 0.0
2015-Mar-28 03:33N 35°30' E 140°02'0 0.0
2015-Mar-28 02:33N 35°30' E 140°02'1 0.8
2015-Mar-28 01:33N 35°30' E 140°01'1211.6
2015-Mar-28 00:32N 35°25' E 139°48'1212.0
2015-Mar-27 23:33N 35°14' E 139°47'1212.5
2015-Mar-27 22:33N 35°03' E 139°40'1313.4
2015-Mar-27 21:33N 34°54' E 139°27'7 0.2
2015-Mar-26 07:08N 35°00' E 139°31'711.8
2015-Mar-26 06:33N 35°04' E 139°38'1212.3
2015-Mar-26 05:33N 35°15' E 139°46'1111.0
2015-Mar-26 04:33N 35°26' E 139°45'9 9.4
2015-Mar-26 03:33N 35°29' E 139°55'1 0.5
2015-Mar-26 02:33N 35°29' E 139°56'5 4.7
2015-Mar-26 01:33N 35°30' E 140°02'0 0.0
2015-Mar-26 00:33N 35°30' E 140°02'0 0.0
2015-Mar-25 23:33N 35°30' E 140°02'0 0.2
2015-Mar-25 22:32N 35°30' E 140°02'3 2.9
2015-Mar-25 21:32N 35°31' E 139°59'0 0.0
2015-Mar-25 20:33N 35°32' E 139°59'0 0.0
2015-Mar-25 19:33N 35°31' E 139°59'0 0.0
2015-Mar-25 18:33N 35°32' E 139°59'0 0.0
2015-Mar-25 17:32N 35°32' E 139°59'0 0.0
2015-Mar-25 16:33N 35°31' E 139°59'0 0.0
2015-Mar-25 15:33N 35°31' E 139°59'0 0.0
2015-Mar-25 14:33N 35°32' E 139°59'0 0.0
2015-Mar-25 13:33N 35°32' E 139°59'0 0.0
2015-Mar-25 12:33N 35°31' E 139°59'0 0.0
2015-Mar-25 11:33N 35°32' E 139°59'0 0.0
2015-Mar-25 10:33N 35°32' E 139°59'0 0.0
2015-Mar-25 09:33N 35°32' E 139°59'5 5.5
2015-Mar-25 08:33N 35°29' E 139°53'1312.5
2015-Mar-25 07:33N 35°18' E 139°44'1212.2
2015-Mar-25 06:33N 35°06' E 139°45'1413.3
2015-Mar-25 05:32N 34°57' E 139°32'23110.8
2015-Mar-24 08:05N 34°05' E 134°59'814.9
2015-Mar-24 07:33N 34°12' E 134°59'1815.1
2015-Mar-24 06:23N 34°30' E 135°03'910.7
2015-Mar-24 05:30N 34°37' E 134°55'4 0.7
2015-Mar-23 23:27N 34°39' E 134°50'1112.3
2015-Mar-23 22:32N 34°36' E 135°04'1111.5
2015-Mar-23 21:33N 34°25' E 135°02'1111.3
2015-Mar-23 20:33N 34°14' E 134°59'1111.5
2015-Mar-23 19:33N 34°02' E 134°60'  
2015-Mar-21 11:33N 35°03' E 139°35'1212.6
2015-Mar-21 10:33N 35°12' E 139°46'1312.5
2015-Mar-21 09:33N 35°24' E 139°43'1611.8
2015-Mar-21 08:14N 35°30' E 140°01'0 0.1
2015-Mar-21 02:33N 35°30' E 140°01'8 7.5
2015-Mar-21 01:30N 35°28' E 139°52'1111.9
2015-Mar-21 00:33N 35°19' E 139°44'1211.4
2015-Mar-20 23:33N 35°08' E 139°46'1312.5
2015-Mar-20 22:32N 34°59' E 139°34'  

Dump ship's entire track history